sensor_id;sensor_type;location;lat;lon;timestamp;P1;durP1;ratioP1;P2;durP2;ratioP2
3541;SDS011;1785;47.388;8.538;2022-10-16T00:00:35;8.18;;;3.10;;
3541;SDS011;1785;47.388;8.538;2022-10-16T00:03:03;3.40;;;3.10;;
3541;SDS011;1785;47.388;8.538;2022-10-16T00:05:29;2.63;;;2.43;;
3541;SDS011;1785;47.388;8.538;2022-10-16T00:07:56;3.10;;;2.60;;
3541;SDS011;1785;47.388;8.538;2022-10-16T00:10:22;5.40;;;3.20;;
3541;SDS011;1785;47.388;8.538;2022-10-16T00:12:49;4.90;;;2.90;;
3541;SDS011;1785;47.388;8.538;2022-10-16T00:15:16;3.90;;;2.50;;
3541;SDS011;1785;47.388;8.538;2022-10-16T00:17:42;3.00;;;2.80;;
3541;SDS011;1785;47.388;8.538;2022-10-16T00:20:09;5.57;;;2.60;;
3541;SDS011;1785;47.388;8.538;2022-10-16T00:22:35;4.53;;;2.60;;
3541;SDS011;1785;47.388;8.538;2022-10-16T00:25:03;4.30;;;2.90;;
3541;SDS011;1785;47.388;8.538;2022-10-16T00:27:29;3.20;;;2.90;;
3541;SDS011;1785;47.388;8.538;2022-10-16T00:29:56;4.13;;;2.77;;
3541;SDS011;1785;47.388;8.538;2022-10-16T00:32:23;4.50;;;3.10;;
3541;SDS011;1785;47.388;8.538;2022-10-16T00:34:49;4.63;;;3.10;;
3541;SDS011;1785;47.388;8.538;2022-10-16T00:37:16;4.77;;;2.40;;
3541;SDS011;1785;47.388;8.538;2022-10-16T00:39:42;3.67;;;2.77;;
3541;SDS011;1785;47.388;8.538;2022-10-16T00:42:09;3.60;;;2.73;;
3541;SDS011;1785;47.388;8.538;2022-10-16T00:44:44;3.27;;;2.50;;
3541;SDS011;1785;47.388;8.538;2022-10-16T00:47:15;4.43;;;2.47;;
3541;SDS011;1785;47.388;8.538;2022-10-16T00:49:45;3.33;;;2.47;;
3541;SDS011;1785;47.388;8.538;2022-10-16T00:52:13;5.60;;;2.60;;
3541;SDS011;1785;47.388;8.538;2022-10-16T00:54:39;2.80;;;2.60;;
3541;SDS011;1785;47.388;8.538;2022-10-16T00:57:06;3.27;;;2.97;;
3541;SDS011;1785;47.388;8.538;2022-10-16T00:59:37;2.70;;;2.50;;
3541;SDS011;1785;47.388;8.538;2022-10-16T01:02:06;4.20;;;2.83;;
3541;SDS011;1785;47.388;8.538;2022-10-16T01:04:34;2.83;;;2.63;;
3541;SDS011;1785;47.388;8.538;2022-10-16T01:07:04;2.27;;;2.07;;
3541;SDS011;1785;47.388;8.538;2022-10-16T01:09:37;3.20;;;2.13;;
3541;SDS011;1785;47.388;8.538;2022-10-16T01:12:14;4.40;;;2.40;;
3541;SDS011;1785;47.388;8.538;2022-10-16T01:14:48;2.30;;;2.10;;
3541;SDS011;1785;47.388;8.538;2022-10-16T01:17:20;3.28;;;2.00;;
3541;SDS011;1785;47.388;8.538;2022-10-16T01:19:56;2.40;;;2.20;;
3541;SDS011;1785;47.388;8.538;2022-10-16T01:22:35;2.40;;;2.10;;
3541;SDS011;1785;47.388;8.538;2022-10-16T01:25:09;2.10;;;1.90;;
3541;SDS011;1785;47.388;8.538;2022-10-16T01:27:42;5.53;;;2.30;;
3541;SDS011;1785;47.388;8.538;2022-10-16T01:30:12;4.60;;;2.23;;
3541;SDS011;1785;47.388;8.538;2022-10-16T01:32:43;4.93;;;2.10;;
3541;SDS011;1785;47.388;8.538;2022-10-16T01:35:16;2.27;;;2.07;;
3541;SDS011;1785;47.388;8.538;2022-10-16T01:37:48;2.40;;;2.20;;
3541;SDS011;1785;47.388;8.538;2022-10-16T01:40:19;2.50;;;2.30;;
3541;SDS011;1785;47.388;8.538;2022-10-16T01:42:51;2.20;;;2.00;;
3541;SDS011;1785;47.388;8.538;2022-10-16T01:45:19;2.73;;;2.40;;
3541;SDS011;1785;47.388;8.538;2022-10-16T01:47:47;2.73;;;2.50;;
3541;SDS011;1785;47.388;8.538;2022-10-16T01:50:15;4.93;;;2.07;;
3541;SDS011;1785;47.388;8.538;2022-10-16T01:52:44;3.13;;;2.13;;
3541;SDS011;1785;47.388;8.538;2022-10-16T01:55:16;2.40;;;2.13;;
3541;SDS011;1785;47.388;8.538;2022-10-16T01:57:46;2.90;;;2.10;;
3541;SDS011;1785;47.388;8.538;2022-10-16T02:00:15;3.63;;;2.27;;
3541;SDS011;1785;47.388;8.538;2022-10-16T02:02:45;2.10;;;2.00;;
3541;SDS011;1785;47.388;8.538;2022-10-16T02:05:15;3.90;;;2.23;;
3541;SDS011;1785;47.388;8.538;2022-10-16T02:07:46;4.13;;;2.33;;
3541;SDS011;1785;47.388;8.538;2022-10-16T02:10:13;3.90;;;2.80;;
3541;SDS011;1785;47.388;8.538;2022-10-16T02:12:40;4.53;;;2.90;;
3541;SDS011;1785;47.388;8.538;2022-10-16T02:15:10;4.00;;;3.70;;
3541;SDS011;1785;47.388;8.538;2022-10-16T02:17:37;6.47;;;3.40;;
3541;SDS011;1785;47.388;8.538;2022-10-16T02:20:04;3.50;;;2.77;;
3541;SDS011;1785;47.388;8.538;2022-10-16T02:22:32;5.00;;;3.23;;
3541;SDS011;1785;47.388;8.538;2022-10-16T02:25:02;3.60;;;3.30;;
3541;SDS011;1785;47.388;8.538;2022-10-16T02:27:33;5.87;;;3.40;;
3541;SDS011;1785;47.388;8.538;2022-10-16T02:30:05;4.83;;;3.53;;
3541;SDS011;1785;47.388;8.538;2022-10-16T02:32:37;5.97;;;3.77;;
3541;SDS011;1785;47.388;8.538;2022-10-16T02:35:07;7.25;;;3.80;;
3541;SDS011;1785;47.388;8.538;2022-10-16T02:37:35;5.60;;;3.30;;
3541;SDS011;1785;47.388;8.538;2022-10-16T02:40:02;6.43;;;3.33;;
3541;SDS011;1785;47.388;8.538;2022-10-16T02:42:33;8.70;;;3.43;;
3541;SDS011;1785;47.388;8.538;2022-10-16T02:45:00;7.43;;;3.97;;
3541;SDS011;1785;47.388;8.538;2022-10-16T02:47:27;5.33;;;4.83;;
3541;SDS011;1785;47.388;8.538;2022-10-16T02:49:53;5.50;;;4.83;;
3541;SDS011;1785;47.388;8.538;2022-10-16T02:52:20;5.63;;;4.20;;
3541;SDS011;1785;47.388;8.538;2022-10-16T02:54:46;4.10;;;3.70;;
3541;SDS011;1785;47.388;8.538;2022-10-16T02:57:12;4.17;;;3.80;;
3541;SDS011;1785;47.388;8.538;2022-10-16T02:59:38;8.10;;;4.13;;
3541;SDS011;1785;47.388;8.538;2022-10-16T03:02:05;4.77;;;4.27;;
3541;SDS011;1785;47.388;8.538;2022-10-16T03:04:31;4.90;;;4.40;;
3541;SDS011;1785;47.388;8.538;2022-10-16T03:06:58;8.97;;;4.43;;
3541;SDS011;1785;47.388;8.538;2022-10-16T03:09:24;6.00;;;4.40;;
3541;SDS011;1785;47.388;8.538;2022-10-16T03:11:50;4.90;;;3.63;;
3541;SDS011;1785;47.388;8.538;2022-10-16T03:14:17;5.67;;;4.20;;
3541;SDS011;1785;47.388;8.538;2022-10-16T03:16:43;4.77;;;4.33;;
3541;SDS011;1785;47.388;8.538;2022-10-16T03:19:09;8.80;;;4.83;;
3541;SDS011;1785;47.388;8.538;2022-10-16T03:21:36;4.97;;;3.87;;
3541;SDS011;1785;47.388;8.538;2022-10-16T03:24:03;8.83;;;4.83;;
3541;SDS011;1785;47.388;8.538;2022-10-16T03:26:30;6.07;;;3.97;;
3541;SDS011;1785;47.388;8.538;2022-10-16T03:28:56;7.50;;;4.30;;
3541;SDS011;1785;47.388;8.538;2022-10-16T03:31:22;8.43;;;4.67;;
3541;SDS011;1785;47.388;8.538;2022-10-16T03:33:48;4.70;;;4.30;;
3541;SDS011;1785;47.388;8.538;2022-10-16T03:36:15;4.80;;;4.40;;
3541;SDS011;1785;47.388;8.538;2022-10-16T03:38:41;5.10;;;4.27;;
3541;SDS011;1785;47.388;8.538;2022-10-16T03:41:08;3.73;;;3.43;;
3541;SDS011;1785;47.388;8.538;2022-10-16T03:43:34;8.23;;;3.90;;
3541;SDS011;1785;47.388;8.538;2022-10-16T03:46:01;4.07;;;3.67;;
3541;SDS011;1785;47.388;8.538;2022-10-16T03:48:28;6.83;;;4.30;;
3541;SDS011;1785;47.388;8.538;2022-10-16T03:50:55;7.87;;;4.83;;
3541;SDS011;1785;47.388;8.538;2022-10-16T03:53:21;5.73;;;4.47;;
3541;SDS011;1785;47.388;8.538;2022-10-16T03:55:47;4.20;;;3.90;;
3541;SDS011;1785;47.388;8.538;2022-10-16T03:58:14;6.17;;;3.70;;
3541;SDS011;1785;47.388;8.538;2022-10-16T04:00:41;4.57;;;3.93;;
3541;SDS011;1785;47.388;8.538;2022-10-16T04:03:07;8.87;;;5.10;;
3541;SDS011;1785;47.388;8.538;2022-10-16T04:05:34;5.20;;;4.30;;
3541;SDS011;1785;47.388;8.538;2022-10-16T04:08:00;4.50;;;4.10;;
3541;SDS011;1785;47.388;8.538;2022-10-16T04:10:26;6.40;;;4.40;;
3541;SDS011;1785;47.388;8.538;2022-10-16T04:12:52;4.37;;;3.77;;
3541;SDS011;1785;47.388;8.538;2022-10-16T04:15:21;5.03;;;4.53;;
3541;SDS011;1785;47.388;8.538;2022-10-16T04:17:48;9.60;;;5.40;;
3541;SDS011;1785;47.388;8.538;2022-10-16T04:20:14;4.87;;;4.20;;
3541;SDS011;1785;47.388;8.538;2022-10-16T04:22:40;5.00;;;3.80;;
3541;SDS011;1785;47.388;8.538;2022-10-16T04:25:07;5.13;;;4.63;;
3541;SDS011;1785;47.388;8.538;2022-10-16T04:27:34;5.33;;;4.13;;
3541;SDS011;1785;47.388;8.538;2022-10-16T04:30:00;7.60;;;4.70;;
3541;SDS011;1785;47.388;8.538;2022-10-16T04:32:27;4.87;;;4.40;;
3541;SDS011;1785;47.388;8.538;2022-10-16T04:34:53;6.50;;;4.07;;
3541;SDS011;1785;47.388;8.538;2022-10-16T04:37:22;6.23;;;5.33;;
3541;SDS011;1785;47.388;8.538;2022-10-16T04:39:49;4.17;;;3.67;;
3541;SDS011;1785;47.388;8.538;2022-10-16T04:42:15;8.40;;;3.83;;
3541;SDS011;1785;47.388;8.538;2022-10-16T04:44:41;4.53;;;3.60;;
3541;SDS011;1785;47.388;8.538;2022-10-16T04:47:08;3.97;;;2.80;;
3541;SDS011;1785;47.388;8.538;2022-10-16T04:49:35;4.37;;;3.13;;
3541;SDS011;1785;47.388;8.538;2022-10-16T04:52:01;3.57;;;2.47;;
3541;SDS011;1785;47.388;8.538;2022-10-16T04:54:28;2.77;;;2.23;;
3541;SDS011;1785;47.388;8.538;2022-10-16T04:56:54;3.67;;;2.50;;
3541;SDS011;1785;47.388;8.538;2022-10-16T04:59:21;4.47;;;2.40;;
3541;SDS011;1785;47.388;8.538;2022-10-16T05:01:47;3.50;;;2.30;;
3541;SDS011;1785;47.388;8.538;2022-10-16T05:04:14;5.53;;;2.40;;
3541;SDS011;1785;47.388;8.538;2022-10-16T05:06:41;2.70;;;2.27;;
3541;SDS011;1785;47.388;8.538;2022-10-16T05:09:08;2.80;;;1.93;;
3541;SDS011;1785;47.388;8.538;2022-10-16T05:11:34;4.87;;;2.10;;
3541;SDS011;1785;47.388;8.538;2022-10-16T05:14:01;2.90;;;2.13;;
3541;SDS011;1785;47.388;8.538;2022-10-16T05:16:27;4.10;;;2.03;;
3541;SDS011;1785;47.388;8.538;2022-10-16T05:18:53;5.83;;;2.17;;
3541;SDS011;1785;47.388;8.538;2022-10-16T05:21:20;2.87;;;1.70;;
3541;SDS011;1785;47.388;8.538;2022-10-16T05:23:47;2.03;;;1.87;;
3541;SDS011;1785;47.388;8.538;2022-10-16T05:26:13;2.27;;;1.73;;
3541;SDS011;1785;47.388;8.538;2022-10-16T05:28:40;1.90;;;1.80;;
3541;SDS011;1785;47.388;8.538;2022-10-16T05:31:06;3.10;;;1.87;;
3541;SDS011;1785;47.388;8.538;2022-10-16T05:33:34;1.80;;;1.70;;
3541;SDS011;1785;47.388;8.538;2022-10-16T05:36:01;1.83;;;1.73;;
3541;SDS011;1785;47.388;8.538;2022-10-16T05:38:28;5.07;;;1.80;;
3541;SDS011;1785;47.388;8.538;2022-10-16T05:40:55;3.80;;;1.93;;
3541;SDS011;1785;47.388;8.538;2022-10-16T05:43:22;3.20;;;2.00;;
3541;SDS011;1785;47.388;8.538;2022-10-16T05:45:54;3.60;;;2.37;;
3541;SDS011;1785;47.388;8.538;2022-10-16T05:48:21;2.70;;;2.17;;
3541;SDS011;1785;47.388;8.538;2022-10-16T05:50:48;4.10;;;1.97;;
3541;SDS011;1785;47.388;8.538;2022-10-16T05:53:14;4.70;;;2.00;;
3541;SDS011;1785;47.388;8.538;2022-10-16T05:55:40;2.43;;;1.93;;
3541;SDS011;1785;47.388;8.538;2022-10-16T05:58:07;4.50;;;2.10;;
3541;SDS011;1785;47.388;8.538;2022-10-16T06:00:33;3.53;;;2.43;;
3541;SDS011;1785;47.388;8.538;2022-10-16T06:03:00;3.53;;;1.90;;
3541;SDS011;1785;47.388;8.538;2022-10-16T06:05:27;3.53;;;1.97;;
3541;SDS011;1785;47.388;8.538;2022-10-16T06:07:53;2.67;;;2.23;;
3541;SDS011;1785;47.388;8.538;2022-10-16T06:10:20;3.67;;;2.83;;
3541;SDS011;1785;47.388;8.538;2022-10-16T06:12:46;2.30;;;2.10;;
3541;SDS011;1785;47.388;8.538;2022-10-16T06:15:13;5.37;;;2.40;;
3541;SDS011;1785;47.388;8.538;2022-10-16T06:17:39;1.90;;;1.70;;
3541;SDS011;1785;47.388;8.538;2022-10-16T06:20:06;3.83;;;1.70;;
3541;SDS011;1785;47.388;8.538;2022-10-16T06:22:32;2.40;;;2.20;;
3541;SDS011;1785;47.388;8.538;2022-10-16T06:24:59;3.40;;;1.77;;
3541;SDS011;1785;47.388;8.538;2022-10-16T06:27:25;2.10;;;1.90;;
3541;SDS011;1785;47.388;8.538;2022-10-16T06:29:51;4.13;;;1.80;;
3541;SDS011;1785;47.388;8.538;2022-10-16T06:32:18;2.30;;;1.70;;
3541;SDS011;1785;47.388;8.538;2022-10-16T06:34:44;6.20;;;2.13;;
3541;SDS011;1785;47.388;8.538;2022-10-16T06:37:10;2.97;;;1.60;;
3541;SDS011;1785;47.388;8.538;2022-10-16T06:39:37;2.70;;;1.80;;
3541;SDS011;1785;47.388;8.538;2022-10-16T06:42:04;3.47;;;2.20;;
3541;SDS011;1785;47.388;8.538;2022-10-16T06:44:30;5.80;;;2.13;;
3541;SDS011;1785;47.388;8.538;2022-10-16T06:46:56;3.30;;;1.80;;
3541;SDS011;1785;47.388;8.538;2022-10-16T06:49:23;9.17;;;1.87;;
3541;SDS011;1785;47.388;8.538;2022-10-16T06:51:49;1.83;;;1.70;;
3541;SDS011;1785;47.388;8.538;2022-10-16T06:54:15;5.40;;;2.27;;
3541;SDS011;1785;47.388;8.538;2022-10-16T06:56:42;2.30;;;2.10;;
3541;SDS011;1785;47.388;8.538;2022-10-16T06:59:09;1.73;;;1.63;;
3541;SDS011;1785;47.388;8.538;2022-10-16T07:01:35;1.93;;;1.70;;
3541;SDS011;1785;47.388;8.538;2022-10-16T07:04:02;3.20;;;1.83;;
3541;SDS011;1785;47.388;8.538;2022-10-16T07:06:30;5.97;;;2.60;;
3541;SDS011;1785;47.388;8.538;2022-10-16T07:08:57;4.40;;;1.90;;
3541;SDS011;1785;47.388;8.538;2022-10-16T07:11:23;6.67;;;1.67;;
3541;SDS011;1785;47.388;8.538;2022-10-16T07:13:50;5.00;;;1.90;;
3541;SDS011;1785;47.388;8.538;2022-10-16T07:16:18;4.40;;;1.60;;
3541;SDS011;1785;47.388;8.538;2022-10-16T07:18:45;2.43;;;1.67;;
3541;SDS011;1785;47.388;8.538;2022-10-16T07:21:14;2.10;;;1.90;;
3541;SDS011;1785;47.388;8.538;2022-10-16T07:23:42;9.90;;;2.40;;
3541;SDS011;1785;47.388;8.538;2022-10-16T07:26:09;3.03;;;2.30;;
3541;SDS011;1785;47.388;8.538;2022-10-16T07:28:36;2.60;;;1.87;;
3541;SDS011;1785;47.388;8.538;2022-10-16T07:31:02;3.00;;;2.43;;
3541;SDS011;1785;47.388;8.538;2022-10-16T07:33:29;3.13;;;1.77;;
3541;SDS011;1785;47.388;8.538;2022-10-16T07:35:57;3.43;;;1.90;;
3541;SDS011;1785;47.388;8.538;2022-10-16T07:38:23;2.73;;;2.53;;
3541;SDS011;1785;47.388;8.538;2022-10-16T07:40:56;5.73;;;2.90;;
3541;SDS011;1785;47.388;8.538;2022-10-16T07:43:23;7.40;;;2.60;;
3541;SDS011;1785;47.388;8.538;2022-10-16T07:45:50;14.07;;;2.20;;
3541;SDS011;1785;47.388;8.538;2022-10-16T07:48:16;2.40;;;2.20;;
3541;SDS011;1785;47.388;8.538;2022-10-16T07:50:43;5.80;;;2.30;;
3541;SDS011;1785;47.388;8.538;2022-10-16T07:53:09;2.70;;;2.07;;
3541;SDS011;1785;47.388;8.538;2022-10-16T07:55:37;4.80;;;2.00;;
3541;SDS011;1785;47.388;8.538;2022-10-16T07:58:04;3.07;;;2.20;;
3541;SDS011;1785;47.388;8.538;2022-10-16T08:00:30;3.53;;;2.20;;
3541;SDS011;1785;47.388;8.538;2022-10-16T08:02:57;3.60;;;2.60;;
3541;SDS011;1785;47.388;8.538;2022-10-16T08:05:25;2.60;;;1.90;;
3541;SDS011;1785;47.388;8.538;2022-10-16T08:07:51;3.63;;;2.37;;
3541;SDS011;1785;47.388;8.538;2022-10-16T08:10:18;4.40;;;1.90;;
3541;SDS011;1785;47.388;8.538;2022-10-16T08:12:46;2.30;;;1.70;;
3541;SDS011;1785;47.388;8.538;2022-10-16T08:15:13;1.77;;;1.67;;
3541;SDS011;1785;47.388;8.538;2022-10-16T08:17:39;2.40;;;1.80;;
3541;SDS011;1785;47.388;8.538;2022-10-16T08:20:06;2.83;;;1.80;;
3541;SDS011;1785;47.388;8.538;2022-10-16T08:22:33;3.83;;;2.07;;
3541;SDS011;1785;47.388;8.538;2022-10-16T08:24:59;1.97;;;1.47;;
3541;SDS011;1785;47.388;8.538;2022-10-16T08:27:30;2.30;;;1.47;;
3541;SDS011;1785;47.388;8.538;2022-10-16T08:29:56;1.73;;;1.63;;
3541;SDS011;1785;47.388;8.538;2022-10-16T08:32:23;1.70;;;1.60;;
3541;SDS011;1785;47.388;8.538;2022-10-16T08:34:50;4.77;;;1.53;;
3541;SDS011;1785;47.388;8.538;2022-10-16T08:37:16;2.00;;;1.50;;
3541;SDS011;1785;47.388;8.538;2022-10-16T08:39:42;2.83;;;1.63;;
3541;SDS011;1785;47.388;8.538;2022-10-16T08:42:15;2.90;;;1.50;;
3541;SDS011;1785;47.388;8.538;2022-10-16T08:44:58;1.47;;;1.30;;
3541;SDS011;1785;47.388;8.538;2022-10-16T08:47:38;3.87;;;1.53;;
3541;SDS011;1785;47.388;8.538;2022-10-16T08:50:17;2.17;;;1.60;;
3541;SDS011;1785;47.388;8.538;2022-10-16T08:52:49;4.87;;;2.07;;
3541;SDS011;1785;47.388;8.538;2022-10-16T08:55:19;2.77;;;1.63;;
3541;SDS011;1785;47.388;8.538;2022-10-16T08:57:58;5.37;;;1.80;;
3541;SDS011;1785;47.388;8.538;2022-10-16T09:00:24;7.00;;;2.07;;
3541;SDS011;1785;47.388;8.538;2022-10-16T09:02:55;2.03;;;1.83;;
3541;SDS011;1785;47.388;8.538;2022-10-16T09:08:25;2.10;;;1.93;;
3541;SDS011;1785;47.388;8.538;2022-10-16T09:10:57;2.07;;;1.70;;
3541;SDS011;1785;47.388;8.538;2022-10-16T09:13:28;2.17;;;1.80;;
3541;SDS011;1785;47.388;8.538;2022-10-16T09:16:02;4.40;;;1.97;;
3541;SDS011;1785;47.388;8.538;2022-10-16T09:18:43;2.65;;;2.55;;
3541;SDS011;1785;47.388;8.538;2022-10-16T09:21:18;2.13;;;1.80;;
3541;SDS011;1785;47.388;8.538;2022-10-16T09:23:49;8.57;;;2.70;;
3541;SDS011;1785;47.388;8.538;2022-10-16T09:26:16;1.83;;;1.60;;
3541;SDS011;1785;47.388;8.538;2022-10-16T09:28:44;2.40;;;2.03;;
3541;SDS011;1785;47.388;8.538;2022-10-16T09:31:13;21.73;;;2.90;;
3541;SDS011;1785;47.388;8.538;2022-10-16T09:33:43;9.30;;;2.13;;
3541;SDS011;1785;47.388;8.538;2022-10-16T09:36:13;3.47;;;1.77;;
3541;SDS011;1785;47.388;8.538;2022-10-16T09:38:39;2.13;;;1.40;;
3541;SDS011;1785;47.388;8.538;2022-10-16T09:41:12;1.60;;;1.50;;
3541;SDS011;1785;47.388;8.538;2022-10-16T09:43:46;2.50;;;1.60;;
3541;SDS011;1785;47.388;8.538;2022-10-16T09:48:58;4.90;;;2.17;;
3541;SDS011;1785;47.388;8.538;2022-10-16T09:51:26;4.33;;;1.67;;
3541;SDS011;1785;47.388;8.538;2022-10-16T09:53:56;4.83;;;1.37;;
3541;SDS011;1785;47.388;8.538;2022-10-16T09:56:25;3.90;;;1.80;;
3541;SDS011;1785;47.388;8.538;2022-10-16T09:58:54;1.63;;;1.53;;
3541;SDS011;1785;47.388;8.538;2022-10-16T10:01:22;4.13;;;1.30;;
3541;SDS011;1785;47.388;8.538;2022-10-16T10:03:55;3.37;;;1.40;;
3541;SDS011;1785;47.388;8.538;2022-10-16T10:06:27;1.73;;;1.43;;
3541;SDS011;1785;47.388;8.538;2022-10-16T10:08:56;2.53;;;1.80;;
3541;SDS011;1785;47.388;8.538;2022-10-16T10:11:40;2.80;;;2.10;;
3541;SDS011;1785;47.388;8.538;2022-10-16T10:14:19;3.13;;;2.13;;
3541;SDS011;1785;47.388;8.538;2022-10-16T10:17:07;2.60;;;1.80;;
3541;SDS011;1785;47.388;8.538;2022-10-16T10:19:40;2.67;;;1.38;;
3541;SDS011;1785;47.388;8.538;2022-10-16T10:22:20;3.53;;;1.90;;
3541;SDS011;1785;47.388;8.538;2022-10-16T10:25:10;4.43;;;2.10;;
3541;SDS011;1785;47.388;8.538;2022-10-16T10:27:51;1.90;;;1.40;;
3541;SDS011;1785;47.388;8.538;2022-10-16T10:30:32;4.20;;;1.77;;
3541;SDS011;1785;47.388;8.538;2022-10-16T10:33:09;4.13;;;1.63;;
3541;SDS011;1785;47.388;8.538;2022-10-16T10:35:44;2.80;;;1.93;;
3541;SDS011;1785;47.388;8.538;2022-10-16T10:38:23;1.85;;;1.70;;
3541;SDS011;1785;47.388;8.538;2022-10-16T10:40:57;4.67;;;2.13;;
3541;SDS011;1785;47.388;8.538;2022-10-16T10:43:42;2.90;;;1.50;;
3541;SDS011;1785;47.388;8.538;2022-10-16T10:46:22;2.00;;;1.37;;
3541;SDS011;1785;47.388;8.538;2022-10-16T10:49:02;5.23;;;1.33;;
3541;SDS011;1785;47.388;8.538;2022-10-16T10:51:44;4.40;;;1.27;;
3541;SDS011;1785;47.388;8.538;2022-10-16T10:54:20;2.30;;;1.20;;
3541;SDS011;1785;47.388;8.538;2022-10-16T10:56:56;6.00;;;1.83;;
3541;SDS011;1785;47.388;8.538;2022-10-16T10:59:32;1.63;;;1.40;;
3541;SDS011;1785;47.388;8.538;2022-10-16T11:02:13;3.27;;;1.40;;
3541;SDS011;1785;47.388;8.538;2022-10-16T11:04:49;3.20;;;1.63;;
3541;SDS011;1785;47.388;8.538;2022-10-16T11:07:31;2.07;;;1.87;;
3541;SDS011;1785;47.388;8.538;2022-10-16T11:10:03;1.20;;;1.10;;
3541;SDS011;1785;47.388;8.538;2022-10-16T11:12:36;3.60;;;1.73;;
3541;SDS011;1785;47.388;8.538;2022-10-16T11:15:11;2.97;;;2.50;;
3541;SDS011;1785;47.388;8.538;2022-10-16T11:17:41;3.20;;;1.80;;
3541;SDS011;1785;47.388;8.538;2022-10-16T11:20:15;3.90;;;1.87;;
3541;SDS011;1785;47.388;8.538;2022-10-16T11:22:46;2.80;;;1.90;;
3541;SDS011;1785;47.388;8.538;2022-10-16T11:25:18;3.03;;;1.60;;
3541;SDS011;1785;47.388;8.538;2022-10-16T11:27:49;2.20;;;2.00;;
3541;SDS011;1785;47.388;8.538;2022-10-16T11:30:22;4.33;;;1.70;;
3541;SDS011;1785;47.388;8.538;2022-10-16T11:32:54;2.93;;;1.63;;
3541;SDS011;1785;47.388;8.538;2022-10-16T11:35:33;2.00;;;1.83;;
3541;SDS011;1785;47.388;8.538;2022-10-16T11:38:09;1.80;;;1.63;;
3541;SDS011;1785;47.388;8.538;2022-10-16T11:40:42;2.40;;;1.67;;
3541;SDS011;1785;47.388;8.538;2022-10-16T11:43:14;1.97;;;1.60;;
3541;SDS011;1785;47.388;8.538;2022-10-16T11:45:46;1.97;;;1.70;;
3541;SDS011;1785;47.388;8.538;2022-10-16T11:48:18;4.93;;;1.77;;
3541;SDS011;1785;47.388;8.538;2022-10-16T11:50:53;1.95;;;1.75;;
3541;SDS011;1785;47.388;8.538;2022-10-16T11:53:24;1.80;;;1.70;;
3541;SDS011;1785;47.388;8.538;2022-10-16T11:56:06;2.70;;;1.73;;
3541;SDS011;1785;47.388;8.538;2022-10-16T11:58:34;2.37;;;2.00;;
3541;SDS011;1785;47.388;8.538;2022-10-16T12:01:06;3.20;;;1.50;;
3541;SDS011;1785;47.388;8.538;2022-10-16T12:03:44;1.77;;;1.63;;
3541;SDS011;1785;47.388;8.538;2022-10-16T12:06:18;2.13;;;1.93;;
3541;SDS011;1785;47.388;8.538;2022-10-16T12:08:51;1.77;;;1.67;;
3541;SDS011;1785;47.388;8.538;2022-10-16T12:11:31;3.70;;;1.80;;
3541;SDS011;1785;47.388;8.538;2022-10-16T12:14:05;1.70;;;1.60;;
3541;SDS011;1785;47.388;8.538;2022-10-16T12:16:51;1.43;;;1.33;;
3541;SDS011;1785;47.388;8.538;2022-10-16T12:19:19;1.90;;;1.70;;
3541;SDS011;1785;47.388;8.538;2022-10-16T12:21:47;2.23;;;1.50;;
3541;SDS011;1785;47.388;8.538;2022-10-16T12:27:03;2.93;;;2.30;;
3541;SDS011;1785;47.388;8.538;2022-10-16T12:29:33;3.67;;;1.60;;
3541;SDS011;1785;47.388;8.538;2022-10-16T12:32:03;2.47;;;1.20;;
3541;SDS011;1785;47.388;8.538;2022-10-16T12:34:33;2.60;;;1.50;;
3541;SDS011;1785;47.388;8.538;2022-10-16T12:37:08;3.70;;;1.77;;
3541;SDS011;1785;47.388;8.538;2022-10-16T12:39:38;4.80;;;1.40;;
3541;SDS011;1785;47.388;8.538;2022-10-16T12:42:19;2.30;;;1.25;;
3541;SDS011;1785;47.388;8.538;2022-10-16T12:44:47;2.70;;;1.10;;
3541;SDS011;1785;47.388;8.538;2022-10-16T12:47:19;3.30;;;1.50;;
3541;SDS011;1785;47.388;8.538;2022-10-16T12:49:48;2.10;;;1.17;;
3541;SDS011;1785;47.388;8.538;2022-10-16T12:52:24;3.03;;;1.20;;
3541;SDS011;1785;47.388;8.538;2022-10-16T12:54:55;1.40;;;1.30;;
3541;SDS011;1785;47.388;8.538;2022-10-16T12:57:34;1.60;;;1.50;;
3541;SDS011;1785;47.388;8.538;2022-10-16T13:00:10;1.47;;;1.37;;
3541;SDS011;1785;47.388;8.538;2022-10-16T13:06:06;2.70;;;1.47;;
3541;SDS011;1785;47.388;8.538;2022-10-16T13:08:47;2.00;;;1.90;;
3541;SDS011;1785;47.388;8.538;2022-10-16T13:11:41;1.47;;;1.37;;
3541;SDS011;1785;47.388;8.538;2022-10-16T13:14:32;2.83;;;1.20;;
3541;SDS011;1785;47.388;8.538;2022-10-16T13:17:09;3.00;;;1.07;;
3541;SDS011;1785;47.388;8.538;2022-10-16T13:19:41;2.87;;;1.23;;
3541;SDS011;1785;47.388;8.538;2022-10-16T13:22:14;3.13;;;1.50;;
3541;SDS011;1785;47.388;8.538;2022-10-16T13:24:51;2.70;;;1.30;;
3541;SDS011;1785;47.388;8.538;2022-10-16T13:27:29;1.87;;;1.37;;
3541;SDS011;1785;47.388;8.538;2022-10-16T13:30:09;1.60;;;1.50;;
3541;SDS011;1785;47.388;8.538;2022-10-16T13:32:38;4.33;;;1.57;;
3541;SDS011;1785;47.388;8.538;2022-10-16T13:35:17;1.57;;;1.20;;
3541;SDS011;1785;47.388;8.538;2022-10-16T13:37:45;1.20;;;1.10;;
3541;SDS011;1785;47.388;8.538;2022-10-16T13:40:14;2.80;;;1.70;;
3541;SDS011;1785;47.388;8.538;2022-10-16T13:42:45;1.50;;;1.40;;
3541;SDS011;1785;47.388;8.538;2022-10-16T13:45:17;2.60;;;1.20;;
3541;SDS011;1785;47.388;8.538;2022-10-16T13:47:44;3.73;;;1.33;;
3541;SDS011;1785;47.388;8.538;2022-10-16T13:50:11;3.67;;;1.47;;
3541;SDS011;1785;47.388;8.538;2022-10-16T13:52:40;1.53;;;1.30;;
3541;SDS011;1785;47.388;8.538;2022-10-16T13:55:10;3.33;;;1.20;;
3541;SDS011;1785;47.388;8.538;2022-10-16T13:57:38;2.40;;;1.40;;
3541;SDS011;1785;47.388;8.538;2022-10-16T14:00:17;9.67;;;1.37;;
3541;SDS011;1785;47.388;8.538;2022-10-16T14:02:45;6.60;;;1.77;;
3541;SDS011;1785;47.388;8.538;2022-10-16T14:05:18;2.53;;;1.17;;
3541;SDS011;1785;47.388;8.538;2022-10-16T14:07:47;1.73;;;1.63;;
3541;SDS011;1785;47.388;8.538;2022-10-16T14:10:20;2.43;;;1.40;;
3541;SDS011;1785;47.388;8.538;2022-10-16T14:12:56;2.77;;;1.70;;
3541;SDS011;1785;47.388;8.538;2022-10-16T14:15:24;2.10;;;1.40;;
3541;SDS011;1785;47.388;8.538;2022-10-16T14:17:51;1.93;;;1.73;;
3541;SDS011;1785;47.388;8.538;2022-10-16T14:20:20;1.33;;;1.20;;
3541;SDS011;1785;47.388;8.538;2022-10-16T14:22:57;2.23;;;1.13;;
3541;SDS011;1785;47.388;8.538;2022-10-16T14:25:26;4.20;;;1.47;;
3541;SDS011;1785;47.388;8.538;2022-10-16T14:27:59;6.10;;;1.43;;
3541;SDS011;1785;47.388;8.538;2022-10-16T14:30:28;2.60;;;1.47;;
3541;SDS011;1785;47.388;8.538;2022-10-16T14:32:57;2.30;;;1.43;;
3541;SDS011;1785;47.388;8.538;2022-10-16T14:35:25;9.80;;;1.63;;
3541;SDS011;1785;47.388;8.538;2022-10-16T14:37:58;6.13;;;1.97;;
3541;SDS011;1785;47.388;8.538;2022-10-16T14:40:27;1.73;;;1.40;;
3541;SDS011;1785;47.388;8.538;2022-10-16T14:42:55;3.10;;;1.30;;
3541;SDS011;1785;47.388;8.538;2022-10-16T14:45:23;2.87;;;1.20;;
3541;SDS011;1785;47.388;8.538;2022-10-16T14:47:54;2.77;;;1.70;;
3541;SDS011;1785;47.388;8.538;2022-10-16T14:50:22;2.17;;;1.33;;
3541;SDS011;1785;47.388;8.538;2022-10-16T14:52:48;2.50;;;1.30;;
3541;SDS011;1785;47.388;8.538;2022-10-16T14:55:15;6.17;;;1.47;;
3541;SDS011;1785;47.388;8.538;2022-10-16T14:57:42;3.73;;;1.60;;
3541;SDS011;1785;47.388;8.538;2022-10-16T15:00:11;2.40;;;1.13;;
3541;SDS011;1785;47.388;8.538;2022-10-16T15:02:41;3.47;;;1.93;;
3541;SDS011;1785;47.388;8.538;2022-10-16T15:05:12;4.10;;;1.47;;
3541;SDS011;1785;47.388;8.538;2022-10-16T15:07:41;3.03;;;2.60;;
3541;SDS011;1785;47.388;8.538;2022-10-16T15:10:07;6.63;;;3.23;;
3541;SDS011;1785;47.388;8.538;2022-10-16T15:12:34;4.20;;;2.93;;
3541;SDS011;1785;47.388;8.538;2022-10-16T15:15:01;2.53;;;1.80;;
3541;SDS011;1785;47.388;8.538;2022-10-16T15:17:28;1.90;;;1.80;;
3541;SDS011;1785;47.388;8.538;2022-10-16T15:19:54;3.67;;;1.70;;
3541;SDS011;1785;47.388;8.538;2022-10-16T15:22:24;3.40;;;2.00;;
3541;SDS011;1785;47.388;8.538;2022-10-16T15:24:51;5.27;;;1.97;;
3541;SDS011;1785;47.388;8.538;2022-10-16T15:27:17;5.53;;;1.43;;
3541;SDS011;1785;47.388;8.538;2022-10-16T15:29:43;2.30;;;1.40;;
3541;SDS011;1785;47.388;8.538;2022-10-16T15:32:10;3.13;;;1.40;;
3541;SDS011;1785;47.388;8.538;2022-10-16T15:34:36;4.70;;;2.00;;
3541;SDS011;1785;47.388;8.538;2022-10-16T15:37:03;3.67;;;2.30;;
3541;SDS011;1785;47.388;8.538;2022-10-16T15:39:30;1.80;;;1.70;;
3541;SDS011;1785;47.388;8.538;2022-10-16T15:41:56;3.23;;;2.20;;